Terminal Aerodrome Forecast
Issued by NWS Jacksonville, FL

Home | Current Version | Previous Version | Text Only | Print | Product List | Glossary On
Versions: 1 2 3 4 5 6 7 8 9 10 11 12 13 14 15 16 17 18 19 20 21 22 23 24 25 26 27 28 29 30
000
FTUS42 KJAX 181100
TAFSSI
TAF
KSSI 181123Z 1812/1912 VRB04KT P6SM FEW010 SCT250
     FM181600 11005KT P6SM SCT035
     FM181900 12010KT P6SM VCSH BKN035
     FM190200 11005KT P6SM SCT035 SCT250=

USA.gov is the U.S. government's official web portal to all federal, state and local government web resources and services.